Terminal Aerodrome Forecast
Issued by NWS

Home | Current Version | Previous Version | Graphics & Text | Print | Product List | Glossary On
Versions: 1 2 3 4 5 6 7 8 9 10 11 12 13 14 15 16
000
FTUS42 KMHX 271100 RRA
TAFPGV
TAF
KPGV 271142Z 2712/2812 34010G16KT P6SM BKN020 OVC045
      TEMPO 2712/2714 2SM -SN SCT008 OVC015
     FM271800 33010KT P6SM OVC035
     FM272100 34005KT P6SM SCT040
      AMD LTD TO CLD VIS AND WIND=

USA.gov is the U.S. government's official web portal to all federal, state and local government web resources and services.